sensor_id;sensor_type;location;lat;lon;timestamp;P1;durP1;ratioP1;P2;durP2;ratioP2
18612;SDS011;9436;52.152;21.032;2022-12-08T00:01:38;5.07;;;3.67;;
18612;SDS011;9436;52.152;21.032;2022-12-08T00:04:05;4.30;;;3.67;;
18612;SDS011;9436;52.152;21.032;2022-12-08T00:06:33;4.77;;;3.80;;
18612;SDS011;9436;52.152;21.032;2022-12-08T00:09:21;4.63;;;3.70;;
18612;SDS011;9436;52.152;21.032;2022-12-08T00:11:51;4.93;;;3.37;;
18612;SDS011;9436;52.152;21.032;2022-12-08T00:14:21;5.57;;;3.60;;
18612;SDS011;9436;52.152;21.032;2022-12-08T00:16:49;4.10;;;3.37;;
18612;SDS011;9436;52.152;21.032;2022-12-08T00:19:16;4.77;;;3.73;;
18612;SDS011;9436;52.152;21.032;2022-12-08T00:21:43;5.10;;;3.77;;
18612;SDS011;9436;52.152;21.032;2022-12-08T00:24:11;3.73;;;3.30;;
18612;SDS011;9436;52.152;21.032;2022-12-08T00:26:39;4.43;;;3.30;;
18612;SDS011;9436;52.152;21.032;2022-12-08T00:29:07;4.73;;;3.30;;
18612;SDS011;9436;52.152;21.032;2022-12-08T00:31:34;4.83;;;3.60;;
18612;SDS011;9436;52.152;21.032;2022-12-08T00:34:01;4.57;;;3.67;;
18612;SDS011;9436;52.152;21.032;2022-12-08T00:36:28;3.93;;;3.30;;
18612;SDS011;9436;52.152;21.032;2022-12-08T00:38:55;5.43;;;3.50;;
18612;SDS011;9436;52.152;21.032;2022-12-08T00:41:23;4.67;;;3.20;;
18612;SDS011;9436;52.152;21.032;2022-12-08T00:44:07;4.07;;;3.17;;
18612;SDS011;9436;52.152;21.032;2022-12-08T00:46:35;3.10;;;2.60;;
18612;SDS011;9436;52.152;21.032;2022-12-08T00:49:02;4.17;;;2.83;;
18612;SDS011;9436;52.152;21.032;2022-12-08T00:51:30;2.93;;;2.50;;
18612;SDS011;9436;52.152;21.032;2022-12-08T00:53:58;5.43;;;2.43;;
18612;SDS011;9436;52.152;21.032;2022-12-08T00:56:25;5.27;;;2.80;;
18612;SDS011;9436;52.152;21.032;2022-12-08T00:58:52;3.30;;;2.40;;
18612;SDS011;9436;52.152;21.032;2022-12-08T01:01:21;3.30;;;2.50;;
18612;SDS011;9436;52.152;21.032;2022-12-08T01:03:48;2.90;;;2.20;;
18612;SDS011;9436;52.152;21.032;2022-12-08T01:06:15;3.83;;;2.50;;
18612;SDS011;9436;52.152;21.032;2022-12-08T01:08:42;4.33;;;2.30;;
18612;SDS011;9436;52.152;21.032;2022-12-08T01:11:10;3.80;;;2.53;;
18612;SDS011;9436;52.152;21.032;2022-12-08T01:13:38;3.70;;;2.40;;
18612;SDS011;9436;52.152;21.032;2022-12-08T01:16:06;3.07;;;2.40;;
18612;SDS011;9436;52.152;21.032;2022-12-08T01:18:35;2.77;;;2.30;;
18612;SDS011;9436;52.152;21.032;2022-12-08T01:21:02;3.53;;;2.57;;
18612;SDS011;9436;52.152;21.032;2022-12-08T01:23:30;5.37;;;2.53;;
18612;SDS011;9436;52.152;21.032;2022-12-08T01:26:00;3.47;;;2.60;;
18612;SDS011;9436;52.152;21.032;2022-12-08T01:28:28;3.43;;;2.60;;
18612;SDS011;9436;52.152;21.032;2022-12-08T01:30:56;3.70;;;2.67;;
18612;SDS011;9436;52.152;21.032;2022-12-08T01:33:23;2.80;;;2.40;;
18612;SDS011;9436;52.152;21.032;2022-12-08T01:35:52;4.20;;;2.60;;
18612;SDS011;9436;52.152;21.032;2022-12-08T01:38:20;4.47;;;2.83;;
18612;SDS011;9436;52.152;21.032;2022-12-08T01:40:47;3.67;;;2.77;;
18612;SDS011;9436;52.152;21.032;2022-12-08T01:43:15;3.70;;;2.73;;
18612;SDS011;9436;52.152;21.032;2022-12-08T01:45:43;4.17;;;2.77;;
18612;SDS011;9436;52.152;21.032;2022-12-08T01:48:12;4.50;;;2.80;;
18612;SDS011;9436;52.152;21.032;2022-12-08T01:50:43;4.60;;;2.70;;
18612;SDS011;9436;52.152;21.032;2022-12-08T01:53:14;3.27;;;2.50;;
18612;SDS011;9436;52.152;21.032;2022-12-08T01:55:45;5.63;;;3.00;;
18612;SDS011;9436;52.152;21.032;2022-12-08T01:58:17;5.50;;;2.70;;
18612;SDS011;9436;52.152;21.032;2022-12-08T02:00:48;5.73;;;2.70;;
18612;SDS011;9436;52.152;21.032;2022-12-08T02:03:18;6.50;;;2.90;;
18612;SDS011;9436;52.152;21.032;2022-12-08T02:05:49;5.03;;;2.80;;
18612;SDS011;9436;52.152;21.032;2022-12-08T02:08:19;4.33;;;2.80;;
18612;SDS011;9436;52.152;21.032;2022-12-08T02:10:47;3.47;;;2.50;;
18612;SDS011;9436;52.152;21.032;2022-12-08T02:13:17;4.10;;;2.70;;
18612;SDS011;9436;52.152;21.032;2022-12-08T02:15:48;3.33;;;2.40;;
18612;SDS011;9436;52.152;21.032;2022-12-08T02:18:29;4.93;;;2.63;;
18612;SDS011;9436;52.152;21.032;2022-12-08T02:21:05;3.47;;;2.67;;
18612;SDS011;9436;52.152;21.032;2022-12-08T02:23:40;3.53;;;2.80;;
18612;SDS011;9436;52.152;21.032;2022-12-08T02:29:35;5.47;;;2.70;;
18612;SDS011;9436;52.152;21.032;2022-12-08T02:32:34;5.37;;;2.93;;
18612;SDS011;9436;52.152;21.032;2022-12-08T02:35:37;4.73;;;3.10;;
18612;SDS011;9436;52.152;21.032;2022-12-08T02:38:13;4.83;;;3.10;;
18612;SDS011;9436;52.152;21.032;2022-12-08T02:40:48;3.37;;;3.03;;
18612;SDS011;9436;52.152;21.032;2022-12-08T02:43:26;4.10;;;3.10;;
18612;SDS011;9436;52.152;21.032;2022-12-08T02:46:02;4.10;;;3.47;;
18612;SDS011;9436;52.152;21.032;2022-12-08T02:48:33;5.93;;;3.50;;
18612;SDS011;9436;52.152;21.032;2022-12-08T02:51:02;4.37;;;3.40;;
18612;SDS011;9436;52.152;21.032;2022-12-08T02:53:30;4.03;;;3.40;;
18612;SDS011;9436;52.152;21.032;2022-12-08T02:56:01;5.77;;;3.70;;
18612;SDS011;9436;52.152;21.032;2022-12-08T02:58:41;5.70;;;4.00;;
18612;SDS011;9436;52.152;21.032;2022-12-08T03:04:16;5.37;;;3.67;;
18612;SDS011;9436;52.152;21.032;2022-12-08T03:06:54;6.20;;;3.57;;
18612;SDS011;9436;52.152;21.032;2022-12-08T03:09:32;5.77;;;3.60;;
18612;SDS011;9436;52.152;21.032;2022-12-08T03:12:06;4.90;;;3.47;;
18612;SDS011;9436;52.152;21.032;2022-12-08T03:14:39;4.07;;;3.40;;
18612;SDS011;9436;52.152;21.032;2022-12-08T03:17:11;5.27;;;3.70;;
18612;SDS011;9436;52.152;21.032;2022-12-08T03:19:41;5.17;;;3.47;;
18612;SDS011;9436;52.152;21.032;2022-12-08T03:22:10;6.57;;;3.83;;
18612;SDS011;9436;52.152;21.032;2022-12-08T03:24:40;5.70;;;3.97;;
18612;SDS011;9436;52.152;21.032;2022-12-08T03:27:11;4.47;;;3.50;;
18612;SDS011;9436;52.152;21.032;2022-12-08T03:29:40;5.97;;;3.83;;
18612;SDS011;9436;52.152;21.032;2022-12-08T03:32:10;4.30;;;3.60;;
18612;SDS011;9436;52.152;21.032;2022-12-08T03:34:43;6.63;;;3.70;;
18612;SDS011;9436;52.152;21.032;2022-12-08T03:37:14;6.50;;;3.50;;
18612;SDS011;9436;52.152;21.032;2022-12-08T03:39:42;4.53;;;3.50;;
18612;SDS011;9436;52.152;21.032;2022-12-08T03:42:09;4.77;;;3.77;;
18612;SDS011;9436;52.152;21.032;2022-12-08T03:44:36;5.10;;;3.70;;
18612;SDS011;9436;52.152;21.032;2022-12-08T03:47:03;7.77;;;4.20;;
18612;SDS011;9436;52.152;21.032;2022-12-08T03:49:30;6.63;;;4.30;;
18612;SDS011;9436;52.152;21.032;2022-12-08T03:51:57;6.47;;;3.90;;
18612;SDS011;9436;52.152;21.032;2022-12-08T03:54:25;6.67;;;4.47;;
18612;SDS011;9436;52.152;21.032;2022-12-08T03:56:52;6.90;;;4.33;;
18612;SDS011;9436;52.152;21.032;2022-12-08T03:59:20;6.53;;;4.20;;
18612;SDS011;9436;52.152;21.032;2022-12-08T04:01:47;5.47;;;4.00;;
18612;SDS011;9436;52.152;21.032;2022-12-08T04:04:14;6.90;;;4.07;;
18612;SDS011;9436;52.152;21.032;2022-12-08T04:06:41;7.33;;;4.37;;
18612;SDS011;9436;52.152;21.032;2022-12-08T04:09:08;7.40;;;5.00;;
18612;SDS011;9436;52.152;21.032;2022-12-08T04:11:36;6.30;;;4.60;;
18612;SDS011;9436;52.152;21.032;2022-12-08T04:14:03;7.23;;;4.90;;
18612;SDS011;9436;52.152;21.032;2022-12-08T04:16:30;7.60;;;5.00;;
18612;SDS011;9436;52.152;21.032;2022-12-08T04:18:57;7.33;;;5.00;;
18612;SDS011;9436;52.152;21.032;2022-12-08T04:21:24;6.53;;;5.03;;
18612;SDS011;9436;52.152;21.032;2022-12-08T04:23:51;6.13;;;4.90;;
18612;SDS011;9436;52.152;21.032;2022-12-08T04:26:19;7.17;;;4.87;;
18612;SDS011;9436;52.152;21.032;2022-12-08T04:28:47;5.73;;;5.03;;
18612;SDS011;9436;52.152;21.032;2022-12-08T04:31:14;6.93;;;5.73;;
18612;SDS011;9436;52.152;21.032;2022-12-08T04:33:41;7.17;;;4.90;;
18612;SDS011;9436;52.152;21.032;2022-12-08T04:36:09;6.27;;;5.10;;
18612;SDS011;9436;52.152;21.032;2022-12-08T04:38:37;8.43;;;5.10;;
18612;SDS011;9436;52.152;21.032;2022-12-08T04:41:05;6.97;;;5.20;;
18612;SDS011;9436;52.152;21.032;2022-12-08T04:43:32;9.37;;;5.70;;
18612;SDS011;9436;52.152;21.032;2022-12-08T04:46:00;8.70;;;5.70;;
18612;SDS011;9436;52.152;21.032;2022-12-08T04:48:27;8.67;;;6.30;;
18612;SDS011;9436;52.152;21.032;2022-12-08T04:50:54;8.90;;;5.90;;
18612;SDS011;9436;52.152;21.032;2022-12-08T04:53:21;8.73;;;6.27;;
18612;SDS011;9436;52.152;21.032;2022-12-08T04:55:50;8.03;;;6.20;;
18612;SDS011;9436;52.152;21.032;2022-12-08T04:58:18;7.40;;;6.23;;
18612;SDS011;9436;52.152;21.032;2022-12-08T05:00:45;8.07;;;6.43;;
18612;SDS011;9436;52.152;21.032;2022-12-08T05:03:14;8.53;;;6.23;;
18612;SDS011;9436;52.152;21.032;2022-12-08T05:05:42;8.53;;;6.00;;
18612;SDS011;9436;52.152;21.032;2022-12-08T05:08:10;9.30;;;6.00;;
18612;SDS011;9436;52.152;21.032;2022-12-08T05:10:37;9.20;;;5.60;;
18612;SDS011;9436;52.152;21.032;2022-12-08T05:13:05;8.60;;;5.77;;
18612;SDS011;9436;52.152;21.032;2022-12-08T05:15:32;7.47;;;5.93;;
18612;SDS011;9436;52.152;21.032;2022-12-08T05:17:59;8.33;;;6.00;;
18612;SDS011;9436;52.152;21.032;2022-12-08T05:20:27;9.53;;;6.50;;
18612;SDS011;9436;52.152;21.032;2022-12-08T05:22:54;10.20;;;6.60;;
18612;SDS011;9436;52.152;21.032;2022-12-08T05:25:21;10.13;;;6.60;;
18612;SDS011;9436;52.152;21.032;2022-12-08T05:27:48;9.00;;;6.20;;
18612;SDS011;9436;52.152;21.032;2022-12-08T05:30:15;11.33;;;6.43;;
18612;SDS011;9436;52.152;21.032;2022-12-08T05:32:42;9.33;;;6.30;;
18612;SDS011;9436;52.152;21.032;2022-12-08T05:35:09;8.13;;;6.50;;
18612;SDS011;9436;52.152;21.032;2022-12-08T05:37:38;10.23;;;6.43;;
18612;SDS011;9436;52.152;21.032;2022-12-08T05:40:05;9.27;;;6.40;;
18612;SDS011;9436;52.152;21.032;2022-12-08T05:42:33;7.97;;;6.03;;
18612;SDS011;9436;52.152;21.032;2022-12-08T05:45:00;10.53;;;6.60;;
18612;SDS011;9436;52.152;21.032;2022-12-08T05:47:28;8.83;;;6.33;;
18612;SDS011;9436;52.152;21.032;2022-12-08T05:49:55;8.97;;;6.30;;
18612;SDS011;9436;52.152;21.032;2022-12-08T05:52:22;8.77;;;6.23;;
18612;SDS011;9436;52.152;21.032;2022-12-08T05:54:51;10.20;;;6.73;;
18612;SDS011;9436;52.152;21.032;2022-12-08T05:57:18;11.37;;;6.63;;
18612;SDS011;9436;52.152;21.032;2022-12-08T05:59:45;10.97;;;6.87;;
18612;SDS011;9436;52.152;21.032;2022-12-08T06:02:12;9.43;;;6.40;;
18612;SDS011;9436;52.152;21.032;2022-12-08T06:04:40;9.03;;;6.53;;
18612;SDS011;9436;52.152;21.032;2022-12-08T06:07:07;10.43;;;6.80;;
18612;SDS011;9436;52.152;21.032;2022-12-08T06:09:34;11.47;;;7.23;;
18612;SDS011;9436;52.152;21.032;2022-12-08T06:12:03;11.33;;;6.80;;
18612;SDS011;9436;52.152;21.032;2022-12-08T06:14:31;9.90;;;6.77;;
18612;SDS011;9436;52.152;21.032;2022-12-08T06:16:58;14.23;;;7.87;;
18612;SDS011;9436;52.152;21.032;2022-12-08T06:19:25;8.50;;;6.93;;
18612;SDS011;9436;52.152;21.032;2022-12-08T06:21:52;9.17;;;6.37;;
18612;SDS011;9436;52.152;21.032;2022-12-08T06:24:19;8.73;;;6.83;;
18612;SDS011;9436;52.152;21.032;2022-12-08T06:26:46;9.43;;;7.40;;
18612;SDS011;9436;52.152;21.032;2022-12-08T06:29:14;9.97;;;6.53;;
18612;SDS011;9436;52.152;21.032;2022-12-08T06:31:41;9.47;;;7.13;;
18612;SDS011;9436;52.152;21.032;2022-12-08T06:34:08;11.47;;;6.47;;
18612;SDS011;9436;52.152;21.032;2022-12-08T06:36:35;11.27;;;7.70;;
18612;SDS011;9436;52.152;21.032;2022-12-08T06:39:02;10.33;;;6.83;;
18612;SDS011;9436;52.152;21.032;2022-12-08T06:41:29;9.83;;;6.93;;
18612;SDS011;9436;52.152;21.032;2022-12-08T06:43:56;10.27;;;7.30;;
18612;SDS011;9436;52.152;21.032;2022-12-08T06:46:25;12.23;;;7.20;;
18612;SDS011;9436;52.152;21.032;2022-12-08T06:48:52;9.77;;;7.40;;
18612;SDS011;9436;52.152;21.032;2022-12-08T06:51:20;10.57;;;7.37;;
18612;SDS011;9436;52.152;21.032;2022-12-08T06:53:47;11.05;;;8.32;;
18612;SDS011;9436;52.152;21.032;2022-12-08T06:56:15;9.67;;;7.50;;
18612;SDS011;9436;52.152;21.032;2022-12-08T06:58:44;10.17;;;7.33;;
18612;SDS011;9436;52.152;21.032;2022-12-08T07:01:12;10.83;;;7.67;;
18612;SDS011;9436;52.152;21.032;2022-12-08T07:03:41;9.57;;;7.37;;
18612;SDS011;9436;52.152;21.032;2022-12-08T07:06:09;12.23;;;7.20;;
18612;SDS011;9436;52.152;21.032;2022-12-08T07:08:40;13.43;;;8.07;;
18612;SDS011;9436;52.152;21.032;2022-12-08T07:11:08;10.80;;;7.23;;
18612;SDS011;9436;52.152;21.032;2022-12-08T07:13:36;12.93;;;7.50;;
18612;SDS011;9436;52.152;21.032;2022-12-08T07:16:04;9.97;;;6.83;;
18612;SDS011;9436;52.152;21.032;2022-12-08T07:18:32;10.33;;;7.23;;
18612;SDS011;9436;52.152;21.032;2022-12-08T07:21:03;12.50;;;8.10;;
18612;SDS011;9436;52.152;21.032;2022-12-08T07:23:30;11.37;;;7.10;;
18612;SDS011;9436;52.152;21.032;2022-12-08T07:25:59;11.13;;;7.43;;
18612;SDS011;9436;52.152;21.032;2022-12-08T07:28:28;12.43;;;8.17;;
18612;SDS011;9436;52.152;21.032;2022-12-08T07:30:57;14.40;;;8.23;;
18612;SDS011;9436;52.152;21.032;2022-12-08T07:33:24;11.60;;;8.13;;
18612;SDS011;9436;52.152;21.032;2022-12-08T07:35:54;10.57;;;7.97;;
18612;SDS011;9436;52.152;21.032;2022-12-08T07:38:23;11.80;;;7.70;;
18612;SDS011;9436;52.152;21.032;2022-12-08T07:40:51;10.97;;;8.17;;
18612;SDS011;9436;52.152;21.032;2022-12-08T07:43:19;10.90;;;7.10;;
18612;SDS011;9436;52.152;21.032;2022-12-08T07:45:47;12.50;;;8.20;;
18612;SDS011;9436;52.152;21.032;2022-12-08T07:48:14;12.83;;;9.40;;
18612;SDS011;9436;52.152;21.032;2022-12-08T07:50:42;12.70;;;9.07;;
18612;SDS011;9436;52.152;21.032;2022-12-08T07:53:09;15.17;;;10.07;;
18612;SDS011;9436;52.152;21.032;2022-12-08T07:55:39;12.10;;;8.93;;
18612;SDS011;9436;52.152;21.032;2022-12-08T07:58:06;12.03;;;9.47;;
18612;SDS011;9436;52.152;21.032;2022-12-08T08:00:34;16.07;;;9.97;;
18612;SDS011;9436;52.152;21.032;2022-12-08T08:03:01;12.30;;;8.90;;
18612;SDS011;9436;52.152;21.032;2022-12-08T08:05:28;15.77;;;9.23;;
18612;SDS011;9436;52.152;21.032;2022-12-08T08:07:55;13.37;;;9.23;;
18612;SDS011;9436;52.152;21.032;2022-12-08T08:10:22;12.80;;;8.93;;
18612;SDS011;9436;52.152;21.032;2022-12-08T08:12:50;13.23;;;8.83;;
18612;SDS011;9436;52.152;21.032;2022-12-08T08:15:17;14.27;;;9.90;;
18612;SDS011;9436;52.152;21.032;2022-12-08T08:17:47;12.07;;;9.00;;
18612;SDS011;9436;52.152;21.032;2022-12-08T08:20:15;13.10;;;8.70;;
18612;SDS011;9436;52.152;21.032;2022-12-08T08:22:43;16.63;;;9.20;;
18612;SDS011;9436;52.152;21.032;2022-12-08T08:25:10;13.07;;;9.50;;
18612;SDS011;9436;52.152;21.032;2022-12-08T08:27:38;18.47;;;10.43;;
18612;SDS011;9436;52.152;21.032;2022-12-08T08:30:08;15.20;;;10.63;;
18612;SDS011;9436;52.152;21.032;2022-12-08T08:32:37;15.03;;;10.20;;
18612;SDS011;9436;52.152;21.032;2022-12-08T08:35:05;17.20;;;11.10;;
18612;SDS011;9436;52.152;21.032;2022-12-08T08:37:33;12.93;;;10.40;;
18612;SDS011;9436;52.152;21.032;2022-12-08T08:40:00;15.40;;;10.53;;
18612;SDS011;9436;52.152;21.032;2022-12-08T08:42:27;15.30;;;11.00;;
18612;SDS011;9436;52.152;21.032;2022-12-08T08:44:54;15.87;;;10.40;;
18612;SDS011;9436;52.152;21.032;2022-12-08T08:47:22;14.40;;;10.67;;
18612;SDS011;9436;52.152;21.032;2022-12-08T08:49:49;13.33;;;10.33;;
18612;SDS011;9436;52.152;21.032;2022-12-08T08:52:17;14.60;;;10.60;;
18612;SDS011;9436;52.152;21.032;2022-12-08T08:54:44;16.33;;;10.47;;
18612;SDS011;9436;52.152;21.032;2022-12-08T08:57:12;14.67;;;11.03;;
18612;SDS011;9436;52.152;21.032;2022-12-08T08:59:39;17.37;;;11.77;;
18612;SDS011;9436;52.152;21.032;2022-12-08T09:02:08;14.73;;;10.70;;
18612;SDS011;9436;52.152;21.032;2022-12-08T09:04:42;15.63;;;10.97;;
18612;SDS011;9436;52.152;21.032;2022-12-08T09:07:09;17.47;;;11.27;;
18612;SDS011;9436;52.152;21.032;2022-12-08T09:09:36;15.07;;;10.70;;
18612;SDS011;9436;52.152;21.032;2022-12-08T09:12:03;18.03;;;10.53;;
18612;SDS011;9436;52.152;21.032;2022-12-08T09:14:31;15.10;;;11.00;;
18612;SDS011;9436;52.152;21.032;2022-12-08T09:16:58;14.20;;;10.70;;
18612;SDS011;9436;52.152;21.032;2022-12-08T09:19:25;17.70;;;11.03;;
18612;SDS011;9436;52.152;21.032;2022-12-08T09:21:54;14.73;;;11.70;;
18612;SDS011;9436;52.152;21.032;2022-12-08T09:24:21;13.07;;;10.93;;
18612;SDS011;9436;52.152;21.032;2022-12-08T09:26:48;14.23;;;10.73;;
18612;SDS011;9436;52.152;21.032;2022-12-08T09:29:16;15.10;;;11.23;;
18612;SDS011;9436;52.152;21.032;2022-12-08T09:31:43;16.27;;;11.20;;
18612;SDS011;9436;52.152;21.032;2022-12-08T09:34:10;13.70;;;10.80;;
18612;SDS011;9436;52.152;21.032;2022-12-08T09:36:37;14.97;;;10.90;;
18612;SDS011;9436;52.152;21.032;2022-12-08T09:39:06;14.47;;;11.00;;
18612;SDS011;9436;52.152;21.032;2022-12-08T09:41:34;14.50;;;10.57;;
18612;SDS011;9436;52.152;21.032;2022-12-08T09:44:05;16.63;;;10.83;;
18612;SDS011;9436;52.152;21.032;2022-12-08T09:46:44;13.63;;;11.00;;
18612;SDS011;9436;52.152;21.032;2022-12-08T09:49:16;13.43;;;10.97;;
18612;SDS011;9436;52.152;21.032;2022-12-08T09:51:46;17.60;;;11.60;;
18612;SDS011;9436;52.152;21.032;2022-12-08T09:54:16;15.60;;;12.00;;
18612;SDS011;9436;52.152;21.032;2022-12-08T09:56:45;17.67;;;12.17;;
18612;SDS011;9436;52.152;21.032;2022-12-08T09:59:20;16.83;;;12.43;;
18612;SDS011;9436;52.152;21.032;2022-12-08T10:01:49;14.17;;;12.20;;
18612;SDS011;9436;52.152;21.032;2022-12-08T10:04:19;17.57;;;12.87;;
18612;SDS011;9436;52.152;21.032;2022-12-08T10:06:52;15.77;;;13.03;;
18612;SDS011;9436;52.152;21.032;2022-12-08T10:09:27;16.90;;;13.13;;
18612;SDS011;9436;52.152;21.032;2022-12-08T10:12:02;16.33;;;12.20;;
18612;SDS011;9436;52.152;21.032;2022-12-08T10:14:35;17.07;;;13.13;;
18612;SDS011;9436;52.152;21.032;2022-12-08T10:17:09;17.50;;;12.67;;
18612;SDS011;9436;52.152;21.032;2022-12-08T10:19:42;18.30;;;13.00;;
18612;SDS011;9436;52.152;21.032;2022-12-08T10:22:12;18.27;;;14.20;;
18612;SDS011;9436;52.152;21.032;2022-12-08T10:24:52;17.97;;;14.10;;
18612;SDS011;9436;52.152;21.032;2022-12-08T10:27:24;19.57;;;14.00;;
18612;SDS011;9436;52.152;21.032;2022-12-08T10:29:51;18.03;;;14.60;;
18612;SDS011;9436;52.152;21.032;2022-12-08T10:32:19;20.40;;;14.40;;
18612;SDS011;9436;52.152;21.032;2022-12-08T10:34:58;19.20;;;14.40;;
18612;SDS011;9436;52.152;21.032;2022-12-08T10:37:29;17.73;;;14.87;;
18612;SDS011;9436;52.152;21.032;2022-12-08T10:40:02;19.83;;;15.63;;
18612;SDS011;9436;52.152;21.032;2022-12-08T10:42:35;20.70;;;15.97;;
18612;SDS011;9436;52.152;21.032;2022-12-08T10:45:16;18.40;;;14.50;;
18612;SDS011;9436;52.152;21.032;2022-12-08T10:47:57;20.67;;;15.63;;
18612;SDS011;9436;52.152;21.032;2022-12-08T10:50:28;19.00;;;14.50;;
18612;SDS011;9436;52.152;21.032;2022-12-08T10:52:59;21.03;;;15.47;;
18612;SDS011;9436;52.152;21.032;2022-12-08T10:55:29;18.77;;;14.90;;
18612;SDS011;9436;52.152;21.032;2022-12-08T10:58:15;21.30;;;16.47;;
18612;SDS011;9436;52.152;21.032;2022-12-08T11:00:53;19.47;;;15.03;;
18612;SDS011;9436;52.152;21.032;2022-12-08T11:03:24;21.70;;;15.80;;
18612;SDS011;9436;52.152;21.032;2022-12-08T11:05:57;18.73;;;15.00;;
18612;SDS011;9436;52.152;21.032;2022-12-08T11:08:26;19.17;;;15.47;;
18612;SDS011;9436;52.152;21.032;2022-12-08T11:10:56;19.03;;;14.20;;
18612;SDS011;9436;52.152;21.032;2022-12-08T11:13:24;20.13;;;14.53;;
18612;SDS011;9436;52.152;21.032;2022-12-08T11:15:54;19.17;;;14.90;;
18612;SDS011;9436;52.152;21.032;2022-12-08T11:18:23;61.60;;;18.80;;
18612;SDS011;9436;52.152;21.032;2022-12-08T11:20:59;80.73;;;23.03;;
18612;SDS011;9436;52.152;21.032;2022-12-08T11:23:33;35.93;;;16.27;;
18612;SDS011;9436;52.152;21.032;2022-12-08T11:26:04;50.97;;;19.03;;
18612;SDS011;9436;52.152;21.032;2022-12-08T11:28:36;41.43;;;16.37;;
18612;SDS011;9436;52.152;21.032;2022-12-08T11:31:05;19.37;;;15.27;;
18612;SDS011;9436;52.152;21.032;2022-12-08T11:33:42;21.00;;;16.27;;
18612;SDS011;9436;52.152;21.032;2022-12-08T11:36:11;21.73;;;15.30;;
18612;SDS011;9436;52.152;21.032;2022-12-08T11:38:41;22.27;;;15.63;;
18612;SDS011;9436;52.152;21.032;2022-12-08T11:41:13;53.60;;;19.10;;
18612;SDS011;9436;52.152;21.032;2022-12-08T11:43:45;21.30;;;15.73;;
18612;SDS011;9436;52.152;21.032;2022-12-08T11:46:18;25.20;;;16.87;;
18612;SDS011;9436;52.152;21.032;2022-12-08T11:48:48;94.23;;;19.30;;
18612;SDS011;9436;52.152;21.032;2022-12-08T11:51:19;49.40;;;21.85;;
18612;SDS011;9436;52.152;21.032;2022-12-08T11:53:57;126.90;;;27.63;;
18612;SDS011;9436;52.152;21.032;2022-12-08T11:56:37;27.70;;;16.73;;
18612;SDS011;9436;52.152;21.032;2022-12-08T11:59:07;18.67;;;16.27;;
18612;SDS011;9436;52.152;21.032;2022-12-08T12:01:41;20.70;;;16.60;;
18612;SDS011;9436;52.152;21.032;2022-12-08T12:04:10;21.13;;;16.23;;
18612;SDS011;9436;52.152;21.032;2022-12-08T12:09:41;48.40;;;19.53;;
18612;SDS011;9436;52.152;21.032;2022-12-08T12:12:21;22.50;;;15.40;;
18612;SDS011;9436;52.152;21.032;2022-12-08T12:15:24;19.50;;;16.13;;
18612;SDS011;9436;52.152;21.032;2022-12-08T12:18:09;24.63;;;16.47;;
18612;SDS011;9436;52.152;21.032;2022-12-08T12:20:45;21.00;;;16.03;;
18612;SDS011;9436;52.152;21.032;2022-12-08T12:23:18;20.73;;;15.87;;
18612;SDS011;9436;52.152;21.032;2022-12-08T12:25:55;26.13;;;17.80;;
18612;SDS011;9436;52.152;21.032;2022-12-08T12:28:27;22.53;;;17.60;;
18612;SDS011;9436;52.152;21.032;2022-12-08T12:31:06;20.87;;;17.23;;
18612;SDS011;9436;52.152;21.032;2022-12-08T12:33:35;22.80;;;17.20;;
18612;SDS011;9436;52.152;21.032;2022-12-08T12:36:03;20.80;;;16.30;;
18612;SDS011;9436;52.152;21.032;2022-12-08T12:38:33;22.73;;;17.50;;
18612;SDS011;9436;52.152;21.032;2022-12-08T12:41:23;19.87;;;16.77;;
18612;SDS011;9436;52.152;21.032;2022-12-08T12:46:52;22.43;;;17.50;;
18612;SDS011;9436;52.152;21.032;2022-12-08T12:51:53;21.93;;;17.70;;
18612;SDS011;9436;52.152;21.032;2022-12-08T12:54:21;22.83;;;17.70;;
18612;SDS011;9436;52.152;21.032;2022-12-08T12:56:50;22.73;;;16.77;;
18612;SDS011;9436;52.152;21.032;2022-12-08T12:59:34;23.63;;;17.27;;
18612;SDS011;9436;52.152;21.032;2022-12-08T13:02:16;23.23;;;17.30;;
18612;SDS011;9436;52.152;21.032;2022-12-08T13:04:51;25.00;;;18.10;;
18612;SDS011;9436;52.152;21.032;2022-12-08T13:07:21;20.40;;;17.30;;
18612;SDS011;9436;52.152;21.032;2022-12-08T13:09:53;21.83;;;16.43;;
18612;SDS011;9436;52.152;21.032;2022-12-08T13:12:23;23.63;;;17.50;;
18612;SDS011;9436;52.152;21.032;2022-12-08T13:14:52;22.20;;;17.33;;
18612;SDS011;9436;52.152;21.032;2022-12-08T13:17:29;23.80;;;17.70;;
18612;SDS011;9436;52.152;21.032;2022-12-08T13:19:59;24.07;;;18.23;;
18612;SDS011;9436;52.152;21.032;2022-12-08T13:27:56;24.03;;;18.17;;
18612;SDS011;9436;52.152;21.032;2022-12-08T13:30:40;24.93;;;18.30;;
18612;SDS011;9436;52.152;21.032;2022-12-08T13:33:13;21.60;;;17.90;;
18612;SDS011;9436;52.152;21.032;2022-12-08T13:35:46;21.77;;;17.73;;
18612;SDS011;9436;52.152;21.032;2022-12-08T13:38:16;24.37;;;17.83;;
18612;SDS011;9436;52.152;21.032;2022-12-08T13:40:47;21.47;;;18.03;;
18612;SDS011;9436;52.152;21.032;2022-12-08T13:43:17;23.30;;;18.50;;
18612;SDS011;9436;52.152;21.032;2022-12-08T13:45:50;23.13;;;18.53;;
18612;SDS011;9436;52.152;21.032;2022-12-08T13:48:24;24.83;;;19.47;;
18612;SDS011;9436;52.152;21.032;2022-12-08T13:50:57;24.03;;;19.37;;
18612;SDS011;9436;52.152;21.032;2022-12-08T13:53:37;25.07;;;19.37;;
18612;SDS011;9436;52.152;21.032;2022-12-08T13:56:07;22.90;;;18.23;;
18612;SDS011;9436;52.152;21.032;2022-12-08T13:58:38;24.73;;;19.07;;
18612;SDS011;9436;52.152;21.032;2022-12-08T14:01:07;25.50;;;19.10;;
18612;SDS011;9436;52.152;21.032;2022-12-08T14:03:45;23.57;;;19.30;;
18612;SDS011;9436;52.152;21.032;2022-12-08T14:06:18;26.93;;;18.27;;
18612;SDS011;9436;52.152;21.032;2022-12-08T14:08:52;24.93;;;17.97;;
18612;SDS011;9436;52.152;21.032;2022-12-08T14:11:24;22.53;;;17.10;;
18612;SDS011;9436;52.152;21.032;2022-12-08T14:13:55;23.70;;;17.77;;
18612;SDS011;9436;52.152;21.032;2022-12-08T14:16:25;21.57;;;17.30;;
18612;SDS011;9436;52.152;21.032;2022-12-08T14:18:55;21.53;;;17.57;;
18612;SDS011;9436;52.152;21.032;2022-12-08T14:21:30;20.53;;;16.47;;
18612;SDS011;9436;52.152;21.032;2022-12-08T14:24:00;21.73;;;16.97;;
18612;SDS011;9436;52.152;21.032;2022-12-08T14:26:30;24.80;;;17.27;;
18612;SDS011;9436;52.152;21.032;2022-12-08T14:29:00;23.07;;;17.47;;
18612;SDS011;9436;52.152;21.032;2022-12-08T14:31:27;22.33;;;17.07;;
18612;SDS011;9436;52.152;21.032;2022-12-08T14:33:55;20.47;;;16.13;;
18612;SDS011;9436;52.152;21.032;2022-12-08T14:36:22;21.47;;;17.20;;
18612;SDS011;9436;52.152;21.032;2022-12-08T14:38:50;22.47;;;17.57;;
18612;SDS011;9436;52.152;21.032;2022-12-08T14:41:24;20.83;;;14.90;;
18612;SDS011;9436;52.152;21.032;2022-12-08T14:46:23;21.07;;;16.33;;
18612;SDS011;9436;52.152;21.032;2022-12-08T14:48:52;22.37;;;17.30;;
18612;SDS011;9436;52.152;21.032;2022-12-08T14:51:22;21.93;;;17.67;;
18612;SDS011;9436;52.152;21.032;2022-12-08T14:53:53;22.97;;;17.03;;
18612;SDS011;9436;52.152;21.032;2022-12-08T14:56:23;21.30;;;17.27;;
18612;SDS011;9436;52.152;21.032;2022-12-08T14:59:02;22.53;;;17.27;;
18612;SDS011;9436;52.152;21.032;2022-12-08T15:01:32;20.67;;;16.80;;
18612;SDS011;9436;52.152;21.032;2022-12-08T15:04:00;23.63;;;17.67;;
18612;SDS011;9436;52.152;21.032;2022-12-08T15:06:34;21.83;;;17.67;;
18612;SDS011;9436;52.152;21.032;2022-12-08T15:09:13;21.13;;;17.40;;
18612;SDS011;9436;52.152;21.032;2022-12-08T15:11:41;22.07;;;17.63;;
18612;SDS011;9436;52.152;21.032;2022-12-08T15:16:54;24.30;;;17.60;;